sensor_id;sensor_type;location;lat;lon;timestamp;pressure;altitude;pressure_sealevel;temperature;humidity
7802;BME280;3945;48.952;9.506;2023-08-01T00:00:05;96998.69;;;18.35;94.06
7802;BME280;3945;48.952;9.506;2023-08-01T00:02:33;96991.22;;;18.32;94.67
7802;BME280;3945;48.952;9.506;2023-08-01T00:04:59;96998.34;;;18.28;94.28
7802;BME280;3945;48.952;9.506;2023-08-01T00:07:26;96998.97;;;18.25;93.98
7802;BME280;3945;48.952;9.506;2023-08-01T00:09:52;96991.69;;;18.25;93.40
7802;BME280;3945;48.952;9.506;2023-08-01T00:12:18;96993.72;;;18.20;94.53
7802;BME280;3945;48.952;9.506;2023-08-01T00:14:46;96975.97;;;18.19;94.77
7802;BME280;3945;48.952;9.506;2023-08-01T00:17:12;96988.97;;;18.17;95.26
7802;BME280;3945;48.952;9.506;2023-08-01T00:19:39;96985.81;;;18.15;95.85
7802;BME280;3945;48.952;9.506;2023-08-01T00:22:06;96979.94;;;18.13;95.93
7802;BME280;3945;48.952;9.506;2023-08-01T00:24:32;96971.66;;;18.09;96.41
7802;BME280;3945;48.952;9.506;2023-08-01T00:26:58;96973.75;;;18.12;95.58
7802;BME280;3945;48.952;9.506;2023-08-01T00:29:25;96968.66;;;18.11;95.92
7802;BME280;3945;48.952;9.506;2023-08-01T00:31:52;96966.78;;;18.11;96.76
7802;BME280;3945;48.952;9.506;2023-08-01T00:34:19;96963.78;;;18.13;97.10
7802;BME280;3945;48.952;9.506;2023-08-01T00:36:45;96960.28;;;18.12;96.99
7802;BME280;3945;48.952;9.506;2023-08-01T00:39:11;96958.88;;;18.15;96.72
7802;BME280;3945;48.952;9.506;2023-08-01T00:41:38;96957.75;;;18.16;96.47
7802;BME280;3945;48.952;9.506;2023-08-01T00:44:04;96948.09;;;18.15;96.77
7802;BME280;3945;48.952;9.506;2023-08-01T00:46:31;96940.81;;;18.15;97.02
7802;BME280;3945;48.952;9.506;2023-08-01T00:48:59;96940.34;;;18.13;97.04
7802;BME280;3945;48.952;9.506;2023-08-01T00:51:26;96932.56;;;18.12;97.47
7802;BME280;3945;48.952;9.506;2023-08-01T00:53:52;96927.97;;;18.12;97.98
7802;BME280;3945;48.952;9.506;2023-08-01T00:56:20;96913.41;;;18.13;98.33
7802;BME280;3945;48.952;9.506;2023-08-01T00:58:46;96898.66;;;18.11;98.39
7802;BME280;3945;48.952;9.506;2023-08-01T01:01:13;96883.59;;;18.10;98.43
7802;BME280;3945;48.952;9.506;2023-08-01T01:03:39;96881.22;;;18.08;98.08
7802;BME280;3945;48.952;9.506;2023-08-01T01:06:09;96866.50;;;18.06;98.20
7802;BME280;3945;48.952;9.506;2023-08-01T01:08:36;96853.66;;;18.03;98.50
7802;BME280;3945;48.952;9.506;2023-08-01T01:11:02;96858.25;;;18.02;97.85
7802;BME280;3945;48.952;9.506;2023-08-01T01:13:29;96860.50;;;18.00;97.69
7802;BME280;3945;48.952;9.506;2023-08-01T01:15:55;96841.31;;;18.02;97.77
7802;BME280;3945;48.952;9.506;2023-08-01T01:18:22;96841.63;;;18.00;97.41
7802;BME280;3945;48.952;9.506;2023-08-01T01:20:49;96835.13;;;18.01;97.85
7802;BME280;3945;48.952;9.506;2023-08-01T01:23:16;96831.31;;;18.02;97.44
7802;BME280;3945;48.952;9.506;2023-08-01T01:25:43;96821.34;;;18.03;97.44
7802;BME280;3945;48.952;9.506;2023-08-01T01:28:11;96827.22;;;18.05;96.65
7802;BME280;3945;48.952;9.506;2023-08-01T01:30:38;96827.22;;;18.05;96.84
7802;BME280;3945;48.952;9.506;2023-08-01T01:33:05;96825.16;;;18.02;96.93
7802;BME280;3945;48.952;9.506;2023-08-01T01:35:33;96825.94;;;18.02;97.41
7802;BME280;3945;48.952;9.506;2023-08-01T01:38:00;96836.72;;;18.02;96.84
7802;BME280;3945;48.952;9.506;2023-08-01T01:40:28;96835.59;;;18.03;97.19
7802;BME280;3945;48.952;9.506;2023-08-01T01:42:55;96843.69;;;18.03;96.50
7802;BME280;3945;48.952;9.506;2023-08-01T01:45:21;96851.63;;;18.00;97.17
7802;BME280;3945;48.952;9.506;2023-08-01T01:47:47;96847.34;;;17.99;98.32
7802;BME280;3945;48.952;9.506;2023-08-01T01:50:14;96848.44;;;17.98;98.93
7802;BME280;3945;48.952;9.506;2023-08-01T01:52:40;96847.34;;;17.99;99.46
7802;BME280;3945;48.952;9.506;2023-08-01T01:55:08;96855.91;;;18.01;99.93
7802;BME280;3945;48.952;9.506;2023-08-01T01:57:34;96852.41;;;18.00;99.59
7802;BME280;3945;48.952;9.506;2023-08-01T02:00:02;96837.81;;;18.01;100.00
7802;BME280;3945;48.952;9.506;2023-08-01T02:02:28;96836.25;;;18.00;99.48
7802;BME280;3945;48.952;9.506;2023-08-01T02:04:55;96833.88;;;17.99;99.21
7802;BME280;3945;48.952;9.506;2023-08-01T02:07:21;96818.50;;;17.99;99.29
7802;BME280;3945;48.952;9.506;2023-08-01T02:09:47;96803.78;;;17.97;99.51
7802;BME280;3945;48.952;9.506;2023-08-01T02:12:15;96809.16;;;17.97;98.50
7802;BME280;3945;48.952;9.506;2023-08-01T02:14:41;96802.66;;;17.98;98.30
7802;BME280;3945;48.952;9.506;2023-08-01T02:17:08;96802.97;;;17.96;98.08
7802;BME280;3945;48.952;9.506;2023-08-01T02:19:34;96802.19;;;17.95;97.66
7802;BME280;3945;48.952;9.506;2023-08-01T02:22:00;96798.25;;;17.93;97.88
7802;BME280;3945;48.952;9.506;2023-08-01T02:24:27;96795.56;;;17.93;98.47
7802;BME280;3945;48.952;9.506;2023-08-01T02:26:53;96804.09;;;17.95;98.58
7802;BME280;3945;48.952;9.506;2023-08-01T02:29:21;96816.44;;;17.96;98.82
7802;BME280;3945;48.952;9.506;2023-08-01T02:31:47;96797.13;;;17.94;100.00
7802;BME280;3945;48.952;9.506;2023-08-01T02:34:13;96798.25;;;17.93;100.00
7802;BME280;3945;48.952;9.506;2023-08-01T02:36:40;96787.78;;;17.91;99.20
7802;BME280;3945;48.952;9.506;2023-08-01T02:39:06;96778.13;;;17.90;98.86
7802;BME280;3945;48.952;9.506;2023-08-01T02:41:32;96784.59;;;17.89;98.44
7802;BME280;3945;48.952;9.506;2023-08-01T02:43:59;96773.03;;;17.89;98.64
7802;BME280;3945;48.952;9.506;2023-08-01T02:46:26;96774.63;;;17.90;98.49
7802;BME280;3945;48.952;9.506;2023-08-01T02:48:54;96774.63;;;17.90;98.06
7802;BME280;3945;48.952;9.506;2023-08-01T02:51:21;96785.72;;;17.88;98.94
7802;BME280;3945;48.952;9.506;2023-08-01T02:53:47;96785.25;;;17.86;99.15
7802;BME280;3945;48.952;9.506;2023-08-01T02:56:13;96776.69;;;17.84;99.32
7802;BME280;3945;48.952;9.506;2023-08-01T02:58:40;96783.19;;;17.83;99.87
7802;BME280;3945;48.952;9.506;2023-08-01T03:01:07;96777.81;;;17.83;100.00
7802;BME280;3945;48.952;9.506;2023-08-01T03:03:36;96764.66;;;17.82;100.00
7802;BME280;3945;48.952;9.506;2023-08-01T03:06:03;96757.38;;;17.82;100.00
7802;BME280;3945;48.952;9.506;2023-08-01T03:08:29;96749.78;;;17.84;100.00
7802;BME280;3945;48.952;9.506;2023-08-01T03:10:56;96748.69;;;17.85;100.00
7802;BME280;3945;48.952;9.506;2023-08-01T03:13:22;96741.41;;;17.86;100.00
7802;BME280;3945;48.952;9.506;2023-08-01T03:15:49;96726.81;;;17.87;100.00
7802;BME280;3945;48.952;9.506;2023-08-01T03:18:15;96729.50;;;17.87;100.00
7802;BME280;3945;48.952;9.506;2023-08-01T03:20:43;96724.91;;;17.87;100.00
7802;BME280;3945;48.952;9.506;2023-08-01T03:23:09;96731.09;;;17.88;100.00
7802;BME280;3945;48.952;9.506;2023-08-01T03:25:36;96723.34;;;17.86;100.00
7802;BME280;3945;48.952;9.506;2023-08-01T03:28:03;96726.03;;;17.86;100.00
7802;BME280;3945;48.952;9.506;2023-08-01T03:30:30;96714.47;;;17.86;100.00
7802;BME280;3945;48.952;9.506;2023-08-01T03:32:57;96719.06;;;17.85;100.00
7802;BME280;3945;48.952;9.506;2023-08-01T03:35:23;96714.00;;;17.84;100.00
7802;BME280;3945;48.952;9.506;2023-08-01T03:37:51;96719.38;;;17.84;100.00
7802;BME280;3945;48.952;9.506;2023-08-01T03:40:17;96700.06;;;17.82;100.00
7802;BME280;3945;48.952;9.506;2023-08-01T03:42:44;96707.34;;;17.81;100.00
7802;BME280;3945;48.952;9.506;2023-08-01T03:45:11;96701.16;;;17.81;100.00
7802;BME280;3945;48.952;9.506;2023-08-01T03:47:37;96702.25;;;17.80;100.00
7802;BME280;3945;48.952;9.506;2023-08-01T03:50:04;96710.03;;;17.81;100.00
7802;BME280;3945;48.952;9.506;2023-08-01T03:52:30;96698.03;;;17.79;100.00
7802;BME280;3945;48.952;9.506;2023-08-01T03:54:58;96695.31;;;17.79;100.00
7802;BME280;3945;48.952;9.506;2023-08-01T03:57:24;96696.44;;;17.78;100.00
7802;BME280;3945;48.952;9.506;2023-08-01T03:59:50;96687.25;;;17.79;100.00
7802;BME280;3945;48.952;9.506;2023-08-01T04:02:17;96685.00;;;17.81;100.00
7802;BME280;3945;48.952;9.506;2023-08-01T04:04:43;96677.91;;;17.85;98.84
7802;BME280;3945;48.952;9.506;2023-08-01T04:07:10;96682.19;;;17.86;99.32
7802;BME280;3945;48.952;9.506;2023-08-01T04:09:36;96666.81;;;17.86;98.44
7802;BME280;3945;48.952;9.506;2023-08-01T04:12:05;96663.00;;;17.87;97.57
7802;BME280;3945;48.952;9.506;2023-08-01T04:14:32;96665.25;;;17.85;97.56
7802;BME280;3945;48.952;9.506;2023-08-01T04:16:58;96651.44;;;17.87;97.61
7802;BME280;3945;48.952;9.506;2023-08-01T04:19:25;96645.75;;;17.88;97.26
7802;BME280;3945;48.952;9.506;2023-08-01T04:21:51;96633.75;;;17.86;97.78
7802;BME280;3945;48.952;9.506;2023-08-01T04:24:17;96630.38;;;17.89;96.04
7802;BME280;3945;48.952;9.506;2023-08-01T04:26:44;96596.19;;;17.89;97.34
7802;BME280;3945;48.952;9.506;2023-08-01T04:29:11;96582.41;;;17.91;96.29
7802;BME280;3945;48.952;9.506;2023-08-01T04:31:40;96597.91;;;17.94;94.81
7802;BME280;3945;48.952;9.506;2023-08-01T04:34:06;96616.91;;;17.98;96.38
7802;BME280;3945;48.952;9.506;2023-08-01T04:36:33;96631.00;;;17.94;97.78
7802;BME280;3945;48.952;9.506;2023-08-01T04:38:59;96641.31;;;17.92;98.46
7802;BME280;3945;48.952;9.506;2023-08-01T04:41:25;96642.75;;;17.90;98.96
7802;BME280;3945;48.952;9.506;2023-08-01T04:43:53;96636.88;;;17.88;99.30
7802;BME280;3945;48.952;9.506;2023-08-01T04:46:20;96645.75;;;17.88;99.64
7802;BME280;3945;48.952;9.506;2023-08-01T04:48:47;96628.34;;;17.86;100.00
7802;BME280;3945;48.952;9.506;2023-08-01T04:51:13;96635.94;;;17.84;100.00
7802;BME280;3945;48.952;9.506;2023-08-01T04:53:39;96625.50;;;17.82;100.00
7802;BME280;3945;48.952;9.506;2023-08-01T04:56:06;96613.16;;;17.81;100.00
7802;BME280;3945;48.952;9.506;2023-08-01T04:58:32;96611.25;;;17.82;100.00
7802;BME280;3945;48.952;9.506;2023-08-01T05:00:58;96606.34;;;17.84;100.00
7802;BME280;3945;48.952;9.506;2023-08-01T05:03:26;96618.69;;;17.85;100.00
7802;BME280;3945;48.952;9.506;2023-08-01T05:05:52;96619.00;;;17.83;100.00
7802;BME280;3945;48.952;9.506;2023-08-01T05:08:18;96634.66;;;17.81;100.00
7802;BME280;3945;48.952;9.506;2023-08-01T05:10:45;96649.72;;;17.82;100.00
7802;BME280;3945;48.952;9.506;2023-08-01T05:13:11;96638.94;;;17.82;100.00
7802;BME280;3945;48.952;9.506;2023-08-01T05:15:37;96625.50;;;17.82;100.00
7802;BME280;3945;48.952;9.506;2023-08-01T05:18:04;96643.22;;;17.83;100.00
7802;BME280;3945;48.952;9.506;2023-08-01T05:20:31;96637.22;;;17.86;100.00
7802;BME280;3945;48.952;9.506;2023-08-01T05:22:59;96641.03;;;17.85;100.00
7802;BME280;3945;48.952;9.506;2023-08-01T05:25:25;96638.31;;;17.85;100.00
7802;BME280;3945;48.952;9.506;2023-08-01T05:27:51;96658.41;;;17.88;100.00
7802;BME280;3945;48.952;9.506;2023-08-01T05:30:17;96645.75;;;17.88;100.00
7802;BME280;3945;48.952;9.506;2023-08-01T05:32:44;96631.19;;;17.89;100.00
7802;BME280;3945;48.952;9.506;2023-08-01T05:35:11;96623.41;;;17.88;100.00
7802;BME280;3945;48.952;9.506;2023-08-01T05:37:39;96623.72;;;17.95;100.00
7802;BME280;3945;48.952;9.506;2023-08-01T05:40:06;96614.84;;;17.94;99.85
7802;BME280;3945;48.952;9.506;2023-08-01T05:42:32;96606.78;;;17.94;99.54
7802;BME280;3945;48.952;9.506;2023-08-01T05:44:59;96616.91;;;17.98;99.65
7802;BME280;3945;48.952;9.506;2023-08-01T05:47:25;96614.06;;;17.94;100.00
7802;BME280;3945;48.952;9.506;2023-08-01T05:49:51;96620.72;;;17.97;97.12
7802;BME280;3945;48.952;9.506;2023-08-01T05:52:18;96625.31;;;17.96;97.88
7802;BME280;3945;48.952;9.506;2023-08-01T05:54:45;96620.59;;;17.93;99.11
7802;BME280;3945;48.952;9.506;2023-08-01T05:57:12;96622.31;;;17.89;100.00
7802;BME280;3945;48.952;9.506;2023-08-01T05:59:38;96631.84;;;17.86;99.98
7802;BME280;3945;48.952;9.506;2023-08-01T06:02:05;96624.88;;;17.85;100.00
7802;BME280;3945;48.952;9.506;2023-08-01T06:04:31;96621.38;;;17.85;100.00
7802;BME280;3945;48.952;9.506;2023-08-01T06:06:58;96622.19;;;17.85;99.81
7802;BME280;3945;48.952;9.506;2023-08-01T06:09:24;96619.00;;;17.83;100.00
7802;BME280;3945;48.952;9.506;2023-08-01T06:11:52;96613.63;;;17.83;100.00
7802;BME280;3945;48.952;9.506;2023-08-01T06:14:18;96623.28;;;17.84;100.00
7802;BME280;3945;48.952;9.506;2023-08-01T06:16:45;96614.25;;;17.89;100.00
7802;BME280;3945;48.952;9.506;2023-08-01T06:19:11;96621.84;;;17.87;100.00
7802;BME280;3945;48.952;9.506;2023-08-01T06:21:37;96616.63;;;17.90;100.00
7802;BME280;3945;48.952;9.506;2023-08-01T06:24:04;96621.03;;;17.95;100.00
7802;BME280;3945;48.952;9.506;2023-08-01T06:26:30;96628.78;;;17.97;100.00
7802;BME280;3945;48.952;9.506;2023-08-01T06:28:58;96628.00;;;17.96;99.84
7802;BME280;3945;48.952;9.506;2023-08-01T06:31:24;96633.06;;;17.98;100.00
7802;BME280;3945;48.952;9.506;2023-08-01T06:33:50;96635.75;;;17.98;100.00
7802;BME280;3945;48.952;9.506;2023-08-01T06:36:19;96635.75;;;17.98;100.00
7802;BME280;3945;48.952;9.506;2023-08-01T06:38:45;96637.66;;;17.97;100.00
7802;BME280;3945;48.952;9.506;2023-08-01T06:41:12;96646.34;;;18.03;100.00
7802;BME280;3945;48.952;9.506;2023-08-01T06:43:38;96653.00;;;18.05;100.00
7802;BME280;3945;48.952;9.506;2023-08-01T06:46:06;96668.38;;;18.05;100.00
7802;BME280;3945;48.952;9.506;2023-08-01T06:48:32;96684.34;;;18.01;100.00
7802;BME280;3945;48.952;9.506;2023-08-01T06:50:59;96685.81;;;17.99;100.00
7802;BME280;3945;48.952;9.506;2023-08-01T06:53:26;96689.59;;;17.98;100.00
7802;BME280;3945;48.952;9.506;2023-08-01T06:55:52;96701.00;;;17.94;100.00
7802;BME280;3945;48.952;9.506;2023-08-01T06:58:18;96703.06;;;17.89;100.00
7802;BME280;3945;48.952;9.506;2023-08-01T07:00:45;96704.34;;;17.83;100.00
7802;BME280;3945;48.952;9.506;2023-08-01T07:03:12;96690.56;;;17.76;100.00
7802;BME280;3945;48.952;9.506;2023-08-01T07:05:39;96692.47;;;17.67;100.00
7802;BME280;3945;48.952;9.506;2023-08-01T07:08:05;96667.31;;;17.63;100.00
7802;BME280;3945;48.952;9.506;2023-08-01T07:10:35;96674.06;;;17.60;100.00
7802;BME280;3945;48.952;9.506;2023-08-01T07:13:01;96671.53;;;17.55;100.00
7802;BME280;3945;48.952;9.506;2023-08-01T07:15:29;96678.03;;;17.54;100.00
7802;BME280;3945;48.952;9.506;2023-08-01T07:17:55;96677.22;;;17.53;100.00
7802;BME280;3945;48.952;9.506;2023-08-01T07:20:23;96663.31;;;17.51;100.00
7802;BME280;3945;48.952;9.506;2023-08-01T07:22:49;96664.25;;;17.47;100.00
7802;BME280;3945;48.952;9.506;2023-08-01T07:25:16;96650.81;;;17.47;100.00
7802;BME280;3945;48.952;9.506;2023-08-01T07:27:44;96657.13;;;17.51;100.00
7802;BME280;3945;48.952;9.506;2023-08-01T07:30:10;96649.22;;;17.54;100.00
7802;BME280;3945;48.952;9.506;2023-08-01T07:32:37;96644.63;;;17.55;100.00
7802;BME280;3945;48.952;9.506;2023-08-01T07:35:03;96666.16;;;17.55;100.00
7802;BME280;3945;48.952;9.506;2023-08-01T07:37:32;96673.13;;;17.56;100.00
7802;BME280;3945;48.952;9.506;2023-08-01T07:39:59;96674.38;;;17.58;100.00
7802;BME280;3945;48.952;9.506;2023-08-01T07:42:25;96682.94;;;17.61;100.00
7802;BME280;3945;48.952;9.506;2023-08-01T07:44:51;96664.63;;;17.63;100.00
7802;BME280;3945;48.952;9.506;2023-08-01T07:47:19;96667.94;;;17.68;100.00
7802;BME280;3945;48.952;9.506;2023-08-01T07:49:45;96675.03;;;17.73;100.00
7802;BME280;3945;48.952;9.506;2023-08-01T07:52:11;96675.69;;;17.70;100.00
7802;BME280;3945;48.952;9.506;2023-08-01T07:54:39;96659.22;;;17.63;100.00
7802;BME280;3945;48.952;9.506;2023-08-01T07:57:05;96670.59;;;17.60;100.00
7802;BME280;3945;48.952;9.506;2023-08-01T07:59:32;96669.66;;;17.55;100.00
7802;BME280;3945;48.952;9.506;2023-08-01T08:01:58;96670.28;;;17.52;100.00
7802;BME280;3945;48.952;9.506;2023-08-01T08:04:24;96658.56;;;17.48;100.00
7802;BME280;3945;48.952;9.506;2023-08-01T08:06:51;96659.97;;;17.46;100.00
7802;BME280;3945;48.952;9.506;2023-08-01T08:09:19;96668.22;;;17.41;100.00
7802;BME280;3945;48.952;9.506;2023-08-01T08:11:49;96664.72;;;17.40;100.00
7802;BME280;3945;48.952;9.506;2023-08-01T08:14:16;96666.94;;;17.38;100.00
7802;BME280;3945;48.952;9.506;2023-08-01T08:16:42;96661.88;;;17.37;100.00
7802;BME280;3945;48.952;9.506;2023-08-01T08:19:09;96679.44;;;17.34;100.00
7802;BME280;3945;48.952;9.506;2023-08-01T08:21:36;96670.59;;;17.34;100.00
7802;BME280;3945;48.952;9.506;2023-08-01T08:24:02;96658.25;;;17.33;100.00
7802;BME280;3945;48.952;9.506;2023-08-01T08:26:28;96661.25;;;17.31;100.00
7802;BME280;3945;48.952;9.506;2023-08-01T08:28:57;96666.31;;;17.33;100.00
7802;BME280;3945;48.952;9.506;2023-08-01T08:31:24;96661.72;;;17.33;100.00
7802;BME280;3945;48.952;9.506;2023-08-01T08:33:50;96664.25;;;17.38;100.00
7802;BME280;3945;48.952;9.506;2023-08-01T08:36:16;96663.16;;;17.39;100.00
7802;BME280;3945;48.952;9.506;2023-08-01T08:38:43;96657.94;;;17.43;100.00
7802;BME280;3945;48.952;9.506;2023-08-01T08:41:10;96666.47;;;17.45;100.00
7802;BME280;3945;48.952;9.506;2023-08-01T08:43:36;96658.88;;;17.47;100.00
7802;BME280;3945;48.952;9.506;2023-08-01T08:46:04;96660.47;;;17.48;100.00
7802;BME280;3945;48.952;9.506;2023-08-01T08:48:31;96657.78;;;17.48;100.00
7802;BME280;3945;48.952;9.506;2023-08-01T08:50:59;96657.47;;;17.49;100.00
7802;BME280;3945;48.952;9.506;2023-08-01T08:53:26;96663.63;;;17.50;100.00
7802;BME280;3945;48.952;9.506;2023-08-01T08:55:52;96670.91;;;17.49;100.00
7802;BME280;3945;48.952;9.506;2023-08-01T08:58:18;96677.41;;;17.48;100.00
7802;BME280;3945;48.952;9.506;2023-08-01T09:00:46;96698.28;;;17.51;100.00
7802;BME280;3945;48.952;9.506;2023-08-01T09:03:13;96702.41;;;17.49;100.00
7802;BME280;3945;48.952;9.506;2023-08-01T09:05:41;96698.44;;;17.46;100.00
7802;BME280;3945;48.952;9.506;2023-08-01T09:08:17;96707.47;;;17.42;100.00
7802;BME280;3945;48.952;9.506;2023-08-01T09:10:45;96670.09;;;17.40;100.00
7802;BME280;3945;48.952;9.506;2023-08-01T09:13:11;96664.25;;;17.38;100.00
7802;BME280;3945;48.952;9.506;2023-08-01T09:15:38;96658.38;;;17.36;100.00
7802;BME280;3945;48.952;9.506;2023-08-01T09:18:06;96653.50;;;17.38;100.00
7802;BME280;3945;48.952;9.506;2023-08-01T09:20:40;96647.50;;;17.41;100.00
7802;BME280;3945;48.952;9.506;2023-08-01T09:23:08;96669.94;;;17.45;100.00
7802;BME280;3945;48.952;9.506;2023-08-01T09:25:34;96663.47;;;17.46;100.00
7802;BME280;3945;48.952;9.506;2023-08-01T09:28:01;96664.44;;;17.50;100.00
7802;BME280;3945;48.952;9.506;2023-08-01T09:30:27;96666.00;;;17.51;100.00
7802;BME280;3945;48.952;9.506;2023-08-01T09:32:54;96669.16;;;17.53;100.00
7802;BME280;3945;48.952;9.506;2023-08-01T09:35:20;96660.13;;;17.58;100.00
7802;BME280;3945;48.952;9.506;2023-08-01T09:37:48;96666.50;;;17.62;100.00
7802;BME280;3945;48.952;9.506;2023-08-01T09:40:15;96661.63;;;17.64;100.00
7802;BME280;3945;48.952;9.506;2023-08-01T09:42:42;96642.13;;;17.67;100.00
7802;BME280;3945;48.952;9.506;2023-08-01T09:45:11;96640.72;;;17.61;100.00
7802;BME280;3945;48.952;9.506;2023-08-01T09:47:38;96648.28;;;17.59;100.00
7802;BME280;3945;48.952;9.506;2023-08-01T09:50:05;96653.34;;;17.61;100.00
7802;BME280;3945;48.952;9.506;2023-08-01T09:52:32;96672.47;;;17.59;100.00
7802;BME280;3945;48.952;9.506;2023-08-01T09:55:00;96679.97;;;17.62;100.00
7802;BME280;3945;48.952;9.506;2023-08-01T09:57:27;96670.78;;;17.63;100.00
7802;BME280;3945;48.952;9.506;2023-08-01T09:59:54;96675.38;;;17.71;100.00
7802;BME280;3945;48.952;9.506;2023-08-01T10:02:22;96688.34;;;17.78;100.00
7802;BME280;3945;48.952;9.506;2023-08-01T10:04:49;96678.22;;;17.83;100.00
7802;BME280;3945;48.952;9.506;2023-08-01T10:07:20;96685.31;;;17.88;100.00
7802;BME280;3945;48.952;9.506;2023-08-01T10:09:49;96685.31;;;17.88;100.00
7802;BME280;3945;48.952;9.506;2023-08-01T10:12:17;96682.00;;;17.91;100.00
7802;BME280;3945;48.952;9.506;2023-08-01T10:14:44;96685.97;;;17.93;100.00
7802;BME280;3945;48.952;9.506;2023-08-01T10:17:11;96674.56;;;17.97;100.00
7802;BME280;3945;48.952;9.506;2023-08-01T10:19:37;96685.63;;;17.95;100.00
7802;BME280;3945;48.952;9.506;2023-08-01T10:22:04;96692.91;;;17.94;100.00
7802;BME280;3945;48.952;9.506;2023-08-01T10:24:32;96684.03;;;17.94;100.00
7802;BME280;3945;48.952;9.506;2023-08-01T10:27:08;96692.44;;;18.01;100.00
7802;BME280;3945;48.952;9.506;2023-08-01T10:29:36;96684.53;;;18.05;100.00
7802;BME280;3945;48.952;9.506;2023-08-01T10:32:03;96691.81;;;18.13;100.00
7802;BME280;3945;48.952;9.506;2023-08-01T10:34:29;96692.91;;;18.20;100.00
7802;BME280;3945;48.952;9.506;2023-08-01T10:36:55;96701.75;;;18.29;100.00
7802;BME280;3945;48.952;9.506;2023-08-01T10:39:22;96697.44;;;18.37;100.00
7802;BME280;3945;48.952;9.506;2023-08-01T10:41:56;96695.19;;;18.48;100.00
7802;BME280;3945;48.952;9.506;2023-08-01T10:44:23;96693.75;;;18.59;100.00
7802;BME280;3945;48.952;9.506;2023-08-01T10:46:51;96701.03;;;18.67;100.00
7802;BME280;3945;48.952;9.506;2023-08-01T10:49:18;96693.56;;;18.73;100.00
7802;BME280;3945;48.952;9.506;2023-08-01T10:51:46;96702.56;;;18.85;100.00
7802;BME280;3945;48.952;9.506;2023-08-01T10:54:19;96697.78;;;19.20;100.00
7802;BME280;3945;48.952;9.506;2023-08-01T10:56:47;96697.91;;;19.53;100.00
7802;BME280;3945;48.952;9.506;2023-08-01T10:59:14;96699.94;;;19.98;100.00
7802;BME280;3945;48.952;9.506;2023-08-01T11:01:45;96696.03;;;20.40;100.00
7802;BME280;3945;48.952;9.506;2023-08-01T11:04:16;96703.09;;;20.65;96.88
7802;BME280;3945;48.952;9.506;2023-08-01T11:06:43;96709.28;;;20.66;92.16
7802;BME280;3945;48.952;9.506;2023-08-01T11:09:14;96703.66;;;20.59;88.47
7802;BME280;3945;48.952;9.506;2023-08-01T11:11:41;96707.31;;;20.42;86.31
7802;BME280;3945;48.952;9.506;2023-08-01T11:14:07;96705.28;;;20.39;87.80
7802;BME280;3945;48.952;9.506;2023-08-01T11:16:33;96705.00;;;20.53;89.25
7802;BME280;3945;48.952;9.506;2023-08-01T11:19:00;96724.97;;;20.73;88.94
7802;BME280;3945;48.952;9.506;2023-08-01T11:21:28;96722.97;;;20.82;85.41
7802;BME280;3945;48.952;9.506;2023-08-01T11:23:56;96727.25;;;20.38;84.22
7802;BME280;3945;48.952;9.506;2023-08-01T11:26:22;96727.84;;;20.22;85.90
7802;BME280;3945;48.952;9.506;2023-08-01T11:28:48;96725.38;;;20.30;86.79
7802;BME280;3945;48.952;9.506;2023-08-01T11:31:15;96729.19;;;20.49;83.54
7802;BME280;3945;48.952;9.506;2023-08-01T11:33:41;96707.81;;;20.69;81.80
7802;BME280;3945;48.952;9.506;2023-08-01T11:36:07;96713.59;;;20.79;79.39
7802;BME280;3945;48.952;9.506;2023-08-01T11:38:35;96714.16;;;20.85;76.45
7802;BME280;3945;48.952;9.506;2023-08-01T11:41:02;96720.16;;;21.02;77.12
7802;BME280;3945;48.952;9.506;2023-08-01T11:43:37;96727.47;;;21.14;75.41
7802;BME280;3945;48.952;9.506;2023-08-01T11:46:03;96720.94;;;21.15;73.78
7802;BME280;3945;48.952;9.506;2023-08-01T11:48:30;96717.91;;;21.29;72.53
7802;BME280;3945;48.952;9.506;2023-08-01T11:50:56;96723.97;;;21.50;74.10
7802;BME280;3945;48.952;9.506;2023-08-01T11:53:23;96718.00;;;21.57;70.11
7802;BME280;3945;48.952;9.506;2023-08-01T11:55:51;96729.50;;;21.66;70.26
7802;BME280;3945;48.952;9.506;2023-08-01T11:58:27;96730.16;;;21.75;71.71
7802;BME280;3945;48.952;9.506;2023-08-01T12:01:00;96729.31;;;21.87;69.32
7802;BME280;3945;48.952;9.506;2023-08-01T12:03:27;96745.34;;;22.04;70.90
7802;BME280;3945;48.952;9.506;2023-08-01T12:06:01;96740.06;;;22.23;68.16
7802;BME280;3945;48.952;9.506;2023-08-01T12:08:30;96733.75;;;22.19;62.70
7802;BME280;3945;48.952;9.506;2023-08-01T12:10:59;96747.00;;;22.36;64.28
7802;BME280;3945;48.952;9.506;2023-08-01T12:13:26;96747.53;;;22.42;63.71
7802;BME280;3945;48.952;9.506;2023-08-01T12:15:53;96746.47;;;22.58;64.24
7802;BME280;3945;48.952;9.506;2023-08-01T12:18:21;96739.03;;;22.71;61.64
7802;BME280;3945;48.952;9.506;2023-08-01T12:20:47;96750.28;;;22.85;62.92
7802;BME280;3945;48.952;9.506;2023-08-01T12:23:14;96747.22;;;22.87;61.56
7802;BME280;3945;48.952;9.506;2023-08-01T12:25:40;96760.97;;;22.50;61.94
7802;BME280;3945;48.952;9.506;2023-08-01T12:28:08;96756.69;;;22.22;64.30
7802;BME280;3945;48.952;9.506;2023-08-01T12:30:34;96770.16;;;22.06;64.87
7802;BME280;3945;48.952;9.506;2023-08-01T12:33:00;96770.03;;;22.14;64.09
7802;BME280;3945;48.952;9.506;2023-08-01T12:35:27;96768.69;;;22.36;63.71
7802;BME280;3945;48.952;9.506;2023-08-01T12:37:53;96775.44;;;22.14;63.16
7802;BME280;3945;48.952;9.506;2023-08-01T12:40:20;96773.34;;;21.96;62.49
7802;BME280;3945;48.952;9.506;2023-08-01T12:42:46;96774.13;;;22.08;64.56
7802;BME280;3945;48.952;9.506;2023-08-01T12:45:13;96770.53;;;22.32;64.82
7802;BME280;3945;48.952;9.506;2023-08-01T12:47:40;96770.72;;;22.67;60.96
7802;BME280;3945;48.952;9.506;2023-08-01T12:50:07;96768.47;;;22.85;59.84
7802;BME280;3945;48.952;9.506;2023-08-01T12:52:33;96770.72;;;22.67;60.15
7802;BME280;3945;48.952;9.506;2023-08-01T12:54:59;96771.19;;;22.57;60.61
7802;BME280;3945;48.952;9.506;2023-08-01T12:57:26;96779.56;;;22.36;59.32
7802;BME280;3945;48.952;9.506;2023-08-01T12:59:52;96778.16;;;22.14;60.49
7802;BME280;3945;48.952;9.506;2023-08-01T13:02:20;96789.91;;;22.18;61.85
7802;BME280;3945;48.952;9.506;2023-08-01T13:04:46;96760.50;;;22.48;60.99
7802;BME280;3945;48.952;9.506;2023-08-01T13:07:12;96771.72;;;22.75;60.28
7802;BME280;3945;48.952;9.506;2023-08-01T13:09:39;96760.00;;;23.02;58.92
7802;BME280;3945;48.952;9.506;2023-08-01T13:12:05;96761.78;;;23.26;59.61